createdAt,value
2022-08-11T00:00:28.131Z,98604.03
2022-08-11T00:03:46.130Z,98610.28
2022-08-11T00:06:56.340Z,98599.41
2022-08-11T00:10:13.633Z,98601.34
2022-08-11T00:13:27.284Z,98606.78
2022-08-11T00:16:43.454Z,98607.28
2022-08-11T00:20:12.751Z,98610.81
2022-08-11T00:23:28.037Z,98606.31
2022-08-11T00:26:38.144Z,98599.91
2022-08-11T00:29:58.835Z,98602.66
2022-08-11T00:33:15.545Z,98603.94
2022-08-11T00:36:32.683Z,98609.34
2022-08-11T00:39:57.743Z,98609.53
2022-08-11T00:43:21.420Z,98615.59
2022-08-11T00:46:44.224Z,98609.69
2022-08-11T00:50:06.437Z,98612.84
2022-08-11T00:53:33.058Z,98610.13
2022-08-11T00:57:36.740Z,98608.69
2022-08-11T01:01:09.820Z,98609.31
2022-08-11T01:05:01.043Z,98610.91
2022-08-11T01:08:49.750Z,98612.16
2022-08-11T01:12:28.839Z,98613.78
2022-08-11T01:16:16.843Z,98615.19
2022-08-11T01:28:17.882Z,98610.88
2022-08-11T01:32:08.342Z,98610.50
2022-08-11T01:35:53.222Z,98606.16
2022-08-11T01:39:39.709Z,98606.44
2022-08-11T01:43:48.058Z,98603.25
2022-08-11T01:47:10.915Z,98601.72
2022-08-11T01:50:24.213Z,98599.63
2022-08-11T01:53:47.377Z,98595.16
2022-08-11T01:57:10.658Z,98599.78
2022-08-11T02:00:22.356Z,98596.22
2022-08-11T02:03:42.259Z,98590.00
2022-08-11T02:06:58.476Z,98607.84
2022-08-11T02:10:40.135Z,98604.81
2022-08-11T02:13:52.248Z,98608.44
2022-08-11T02:17:22.371Z,98602.84
2022-08-11T02:20:56.133Z,98596.81
2022-08-11T02:24:10.997Z,98594.69
2022-08-11T02:27:28.399Z,98600.38
2022-08-11T02:30:42.553Z,98587.59
2022-08-11T02:33:55.556Z,98599.72
2022-08-11T02:37:23.476Z,98585.88
2022-08-11T02:40:40.037Z,98587.94
2022-08-11T02:44:04.740Z,98587.75
2022-08-11T02:47:32.110Z,98581.19
2022-08-11T02:50:44.024Z,98583.69
2022-08-11T02:54:03.882Z,98591.81
2022-08-11T02:57:22.153Z,98587.03
2022-08-11T03:00:57.947Z,98584.47
2022-08-11T03:04:37.728Z,98589.00
2022-08-11T03:08:04.939Z,98599.38
2022-08-11T03:11:50.918Z,98597.69
2022-08-11T03:15:36.011Z,98597.59
2022-08-11T03:18:59.655Z,98589.47
2022-08-11T03:22:16.468Z,98593.19
2022-08-11T03:25:32.774Z,98595.91
2022-08-11T03:28:48.043Z,98603.81
2022-08-11T03:32:04.154Z,98610.19
2022-08-11T03:35:21.596Z,98617.41
2022-08-11T03:38:36.261Z,98611.53
2022-08-11T03:42:01.457Z,98620.88
2022-08-11T03:45:25.443Z,98612.84
2022-08-11T03:48:44.681Z,98619.78
2022-08-11T03:52:04.591Z,98617.09
2022-08-11T03:55:19.160Z,98620.09
2022-08-11T03:59:03.674Z,98620.09
2022-08-11T04:02:35.121Z,98613.88
2022-08-11T04:06:08.677Z,98614.31
2022-08-11T04:10:01.439Z,98616.28
2022-08-11T04:13:45.344Z,98612.81
2022-08-11T04:17:09.594Z,98617.50
2022-08-11T04:20:39.426Z,98617.97
2022-08-11T04:24:38.293Z,98609.56
2022-08-11T04:28:29.253Z,98612.56
2022-08-11T04:31:50.287Z,98611.28
2022-08-11T04:35:17.175Z,98615.59
2022-08-11T04:38:59.470Z,98614.41
2022-08-11T04:43:08.834Z,98616.28
2022-08-11T04:46:55.054Z,98624.34
2022-08-11T04:50:34.685Z,98611.88
2022-08-11T04:54:09.766Z,98623.72
2022-08-11T04:57:39.940Z,98619.28
2022-08-11T05:01:19.604Z,98621.91
2022-08-11T05:05:20.007Z,98622.59
2022-08-11T05:09:05.566Z,98634.13
2022-08-11T05:12:38.038Z,98631.59
2022-08-11T05:16:08.285Z,98628.16
2022-08-11T05:19:39.317Z,98624.72
2022-08-11T05:23:10.024Z,98623.72
2022-08-11T05:26:47.405Z,98623.50
2022-08-11T05:30:18.543Z,98621.31
2022-08-11T05:33:43.174Z,98623.16
2022-08-11T05:36:49.290Z,98629.00
2022-08-11T05:40:15.949Z,98623.81
2022-08-11T05:43:36.891Z,98633.00
2022-08-11T05:47:01.054Z,98631.28
2022-08-11T05:50:28.939Z,98627.69
2022-08-11T05:53:53.723Z,98634.31
2022-08-11T05:57:00.379Z,98635.00
2022-08-11T06:00:10.407Z,98635.66
2022-08-11T06:03:24.222Z,98632.66
2022-08-11T06:06:29.313Z,98625.34
2022-08-11T06:09:34.650Z,98628.56
2022-08-11T06:12:40.854Z,98627.75
2022-08-11T06:15:48.155Z,98620.22
2022-08-11T06:18:51.142Z,98621.91
2022-08-11T06:21:54.521Z,98627.97
2022-08-11T06:24:58.896Z,98621.16
2022-08-11T06:28:04.919Z,98624.75
2022-08-11T06:31:14.380Z,98620.91
2022-08-11T06:34:32.697Z,98625.31
2022-08-11T06:37:46.824Z,98632.41
2022-08-11T06:41:08.587Z,98621.53
2022-08-11T06:44:25.533Z,98619.31
2022-08-11T06:47:29.078Z,98622.50
2022-08-11T06:50:51.172Z,98624.56
2022-08-11T06:54:04.191Z,98622.28
2022-08-11T06:57:30.205Z,98619.53
2022-08-11T07:00:36.969Z,98623.63
2022-08-11T07:03:46.426Z,98622.91
2022-08-11T07:07:20.194Z,98622.22
2022-08-11T07:11:01.521Z,98623.97
2022-08-11T07:14:24.367Z,98621.22
2022-08-11T07:17:30.231Z,98624.88
2022-08-11T07:20:50.845Z,98612.25
2022-08-11T07:24:14.253Z,98616.50
2022-08-11T07:27:38.110Z,98610.66
2022-08-11T07:30:43.578Z,98612.63
2022-08-11T07:34:05.403Z,98612.63
2022-08-11T07:37:17.826Z,98606.63
2022-08-11T07:40:34.740Z,98607.72
2022-08-11T07:43:44.070Z,98606.50
2022-08-11T07:47:08.839Z,98604.75
2022-08-11T07:50:36.742Z,98598.09
2022-08-11T07:53:58.619Z,98596.97
2022-08-11T07:58:04.424Z,98599.50
2022-08-11T08:01:21.305Z,98591.38
2022-08-11T08:04:47.272Z,98594.59
2022-08-11T08:08:09.437Z,98593.88
2022-08-11T08:11:30.775Z,98580.69
2022-08-11T08:14:52.618Z,98589.28
2022-08-11T08:18:09.191Z,98592.06
2022-08-11T08:21:21.161Z,98589.91
2022-08-11T08:24:25.913Z,98588.59
2022-08-11T08:27:31.893Z,98583.91
2022-08-11T08:30:51.096Z,98591.19
2022-08-11T08:33:54.157Z,98588.94
2022-08-11T08:36:56.946Z,98597.56
2022-08-11T08:40:01.142Z,98593.25
2022-08-11T08:43:10.097Z,98586.66
2022-08-11T08:46:15.005Z,98576.25
2022-08-11T08:49:20.893Z,98581.53
2022-08-11T08:52:34.511Z,98565.53
2022-08-11T08:55:45.522Z,98574.25
2022-08-11T08:58:51.731Z,98566.94
2022-08-11T09:01:58.712Z,98570.22
2022-08-11T09:05:02.512Z,98568.75
2022-08-11T09:08:07.902Z,98566.50
2022-08-11T09:11:30.279Z,98568.44
2022-08-11T09:14:55.131Z,98567.81
2022-08-11T09:18:03.588Z,98574.28
2022-08-11T09:21:07.700Z,98571.22
2022-08-11T09:24:28.284Z,98577.03
2022-08-11T09:27:33.556Z,98569.88
2022-08-11T09:30:37.350Z,98566.41
2022-08-11T09:33:42.876Z,98573.19
2022-08-11T09:37:03.886Z,98574.03
2022-08-11T09:40:27.404Z,98568.16
2022-08-11T09:43:49.918Z,98568.25
2022-08-11T09:46:54.045Z,98573.06
2022-08-11T09:50:01.313Z,98567.19
2022-08-11T09:53:36.056Z,98558.09
2022-08-11T09:56:47.640Z,98564.28
2022-08-11T09:59:53.502Z,98560.88
2022-08-11T10:03:18.142Z,98560.91
2022-08-11T10:06:47.532Z,98569.16
2022-08-11T10:09:53.211Z,98556.84
2022-08-11T10:13:04.241Z,98541.88
2022-08-11T10:16:15.129Z,98556.03
2022-08-11T10:19:22.128Z,98557.34
2022-08-11T10:22:43.382Z,98547.47
2022-08-11T10:26:04.767Z,98552.19
2022-08-11T10:29:32.181Z,98549.44
2022-08-11T10:33:00.083Z,98545.91
2022-08-11T10:36:06.006Z,98537.59
2022-08-11T10:39:22.302Z,98536.41
2022-08-11T10:42:57.446Z,98534.88
2022-08-11T10:46:18.874Z,98524.97
2022-08-11T10:49:34.298Z,98526.91
2022-08-11T10:52:56.116Z,98528.91
2022-08-11T10:56:18.454Z,98522.59
2022-08-11T10:59:23.219Z,98525.38
2022-08-11T11:02:28.111Z,98511.13
2022-08-11T11:05:33.553Z,98506.03
2022-08-11T11:08:57.762Z,98499.28
2022-08-11T11:12:29.478Z,98520.66
2022-08-11T11:15:53.508Z,98510.75
2022-08-11T11:19:01.469Z,98493.78
2022-08-11T11:22:20.246Z,98501.22
2022-08-11T11:25:37.653Z,98502.03
2022-08-11T11:29:04.523Z,98496.47
2022-08-11T11:32:25.638Z,98483.34
2022-08-11T11:35:39.327Z,98475.03
2022-08-11T11:38:44.283Z,98476.59
2022-08-11T11:41:47.512Z,98472.25
2022-08-11T11:44:55.371Z,98471.88
2022-08-11T11:48:00.916Z,98469.09
2022-08-11T11:51:04.321Z,98464.38
2022-08-11T11:54:10.608Z,98471.97
2022-08-11T11:57:34.830Z,98461.28
2022-08-11T12:00:55.867Z,98463.13
2022-08-11T12:03:59.632Z,98453.44
2022-08-11T12:07:16.306Z,98450.91
2022-08-11T12:10:20.773Z,98447.72
2022-08-11T12:13:40.714Z,98458.00
2022-08-11T12:16:46.164Z,98454.63
2022-08-11T12:19:50.336Z,98439.09
2022-08-11T12:23:11.256Z,98439.13
2022-08-11T12:26:36.880Z,98438.25
2022-08-11T12:29:39.958Z,98436.59
2022-08-11T12:32:44.892Z,98432.81
2022-08-11T12:36:00.569Z,98426.75
2022-08-11T12:39:18.135Z,98416.06
2022-08-11T12:42:55.279Z,98423.97
2022-08-11T12:46:01.704Z,98418.34
2022-08-11T12:49:28.773Z,98426.00
2022-08-11T12:52:36.778Z,98414.47
2022-08-11T12:56:03.929Z,98409.84
2022-08-11T12:59:30.258Z,98400.03
2022-08-11T13:02:51.630Z,98400.38
2022-08-11T13:05:57.437Z,98397.75
2022-08-11T13:09:01.517Z,98389.78
2022-08-11T13:12:22.179Z,98383.03
2022-08-11T13:15:26.925Z,98380.94
2022-08-11T13:18:30.360Z,98375.69
2022-08-11T13:21:33.360Z,98374.38
2022-08-11T13:24:37.380Z,98379.34
2022-08-11T13:27:41.367Z,98378.63
2022-08-11T13:31:03.545Z,98371.69
2022-08-11T13:34:09.004Z,98367.78
2022-08-11T13:37:15.602Z,98389.16
2022-08-11T13:40:33.298Z,98371.69
2022-08-11T13:43:45.203Z,98367.91
2022-08-11T13:46:52.959Z,98370.59
2022-08-11T13:49:57.533Z,98364.63
2022-08-11T13:53:00.619Z,98358.19
2022-08-11T13:56:03.829Z,98362.09
2022-08-11T13:59:09.220Z,98356.41
2022-08-11T14:02:21.777Z,98356.41
2022-08-11T14:05:39.127Z,98358.34
2022-08-11T14:08:47.366Z,98341.72
2022-08-11T14:12:21.392Z,98343.97
2022-08-11T14:15:32.866Z,98337.03
2022-08-11T14:18:41.523Z,98324.50
2022-08-11T14:22:07.297Z,98317.75
2022-08-11T14:25:12.474Z,98329.97
2022-08-11T14:28:43.724Z,98325.16
2022-08-11T14:31:45.000Z,98319.47
2022-08-11T14:34:50.075Z,98324.41
2022-08-11T14:37:53.478Z,98320.97
2022-08-11T14:41:14.047Z,98327.09
2022-08-11T14:44:34.746Z,98328.25
2022-08-11T14:47:38.760Z,98310.56
2022-08-11T14:50:43.653Z,98305.97
2022-08-11T14:53:58.352Z,98307.56
2022-08-11T14:57:03.133Z,98299.47
2022-08-11T15:00:08.330Z,98297.16
2022-08-11T15:03:14.185Z,98292.22
2022-08-11T15:06:18.821Z,98290.06
2022-08-11T15:09:22.143Z,98285.78
2022-08-11T15:12:32.616Z,98290.97
2022-08-11T15:15:54.739Z,98279.38
2022-08-11T15:18:58.867Z,98279.38
2022-08-11T15:22:23.762Z,98280.19
2022-08-11T15:25:31.033Z,98285.31
2022-08-11T15:28:55.770Z,98265.78
2022-08-11T15:32:16.914Z,98276.84
2022-08-11T15:35:39.454Z,98265.97
2022-08-11T15:38:55.258Z,98268.91
2022-08-11T15:42:20.425Z,98257.69
2022-08-11T15:45:43.900Z,98261.75
2022-08-11T15:48:51.556Z,98256.47
2022-08-11T15:52:02.044Z,98254.34
2022-08-11T15:55:09.071Z,98250.72
2022-08-11T15:58:31.463Z,98253.19
2022-08-11T16:01:55.308Z,98252.34
2022-08-11T16:05:00.001Z,98253.56
2022-08-11T16:08:09.783Z,98253.66
2022-08-11T16:11:17.801Z,98243.44
2022-08-11T16:14:38.942Z,98256.19
2022-08-11T16:17:44.704Z,98247.56
2022-08-11T16:20:50.585Z,98250.03
2022-08-11T16:23:56.814Z,98245.13
2022-08-11T16:27:12.939Z,98239.69
2022-08-11T16:30:16.743Z,98238.13
2022-08-11T16:33:50.189Z,98241.44
2022-08-11T16:37:04.395Z,98237.19
2022-08-11T16:40:10.478Z,98236.03
2022-08-11T16:43:35.844Z,98239.22
2022-08-11T16:46:55.984Z,98235.72
2022-08-11T16:50:00.086Z,98245.19
2022-08-11T16:53:03.977Z,98241.22
2022-08-11T16:56:08.931Z,98250.72
2022-08-11T16:59:18.604Z,98237.25
2022-08-11T17:02:38.818Z,98230.56
2022-08-11T17:06:07.206Z,98238.50
2022-08-11T17:09:29.819Z,98244.41
2022-08-11T17:12:52.788Z,98235.75
2022-08-11T17:16:07.679Z,98235.75
2022-08-11T17:19:13.990Z,98230.59
2022-08-11T17:22:36.655Z,98231.03
2022-08-11T17:26:03.894Z,98229.44
2022-08-11T17:29:04.674Z,98221.16
2022-08-11T17:32:31.011Z,98227.03
2022-08-11T17:35:53.946Z,98220.72
2022-08-11T17:38:56.922Z,98213.59
2022-08-11T17:42:18.977Z,98216.34
2022-08-11T17:45:56.347Z,98217.53
2022-08-11T17:49:01.780Z,98216.75
2022-08-11T17:52:23.798Z,98216.31
2022-08-11T17:55:51.819Z,98209.63
2022-08-11T17:59:15.589Z,98219.03
2022-08-11T18:02:38.244Z,98226.50
2022-08-11T18:05:47.173Z,98226.84
2022-08-11T18:09:08.980Z,98226.44
2022-08-11T18:12:30.195Z,98225.22
2022-08-11T18:15:55.943Z,98229.91
2022-08-11T18:19:16.721Z,98236.84
2022-08-11T18:22:41.631Z,98232.81
2022-08-11T18:26:07.279Z,98232.31
2022-08-11T18:29:30.244Z,98234.56
2022-08-11T18:32:59.177Z,98239.16
2022-08-11T18:36:35.006Z,98241.84
2022-08-11T18:40:06.131Z,98240.91
2022-08-11T18:43:29.855Z,98253.38
2022-08-11T18:46:54.946Z,98256.66
2022-08-11T18:50:29.355Z,98254.91
2022-08-11T18:54:02.398Z,98264.84
2022-08-11T18:57:26.326Z,98256.34
2022-08-11T19:00:47.910Z,98263.88
2022-08-11T19:04:11.289Z,98269.19
2022-08-11T19:07:41.617Z,98270.97
2022-08-11T19:11:03.257Z,98281.75
2022-08-11T19:14:26.346Z,98288.22
2022-08-11T19:17:49.757Z,98291.25
2022-08-11T19:21:11.687Z,98292.28
2022-08-11T19:24:33.308Z,98295.34
2022-08-11T19:27:58.181Z,98290.78
2022-08-11T19:31:20.355Z,98289.44
2022-08-11T19:34:42.927Z,98304.53
2022-08-11T19:38:04.042Z,98306.53
2022-08-11T19:41:57.316Z,98318.28
2022-08-11T19:45:05.231Z,98304.66
2022-08-11T19:48:32.223Z,98311.50
2022-08-11T19:51:55.031Z,98310.34
2022-08-11T19:55:16.156Z,98315.63
2022-08-11T19:58:36.998Z,98312.22
2022-08-11T20:02:01.210Z,98317.78
2022-08-11T20:05:38.921Z,98310.56
2022-08-11T20:09:18.471Z,98310.41
2022-08-11T20:12:40.726Z,98318.00
2022-08-11T20:16:01.347Z,98313.69
2022-08-11T20:19:26.029Z,98313.03
2022-08-11T20:23:07.678Z,98316.28
2022-08-11T20:26:31.227Z,98311.78
2022-08-11T20:29:54.358Z,98312.03
2022-08-11T20:33:15.635Z,98312.19
2022-08-11T20:36:36.101Z,98322.16
2022-08-11T20:40:00.360Z,98324.63
2022-08-11T20:44:08.159Z,98319.03
2022-08-11T20:47:03.197Z,98333.84
2022-08-11T20:50:26.634Z,98331.38
2022-08-11T20:53:50.746Z,98330.47
2022-08-11T20:57:15.263Z,98321.69
2022-08-11T21:00:39.246Z,98330.28
2022-08-11T21:04:00.679Z,98336.81
2022-08-11T21:07:28.207Z,98350.69
2022-08-11T21:10:52.599Z,98343.44
2022-08-11T21:14:16.680Z,98351.41
2022-08-11T21:18:00.398Z,98344.94
2022-08-11T21:21:23.426Z,98347.56
2022-08-11T21:24:48.385Z,98343.72
2022-08-11T21:28:10.749Z,98348.94
2022-08-11T21:31:34.684Z,98348.72
2022-08-11T21:34:55.865Z,98341.31
2022-08-11T21:38:17.263Z,98352.44
2022-08-11T21:41:38.770Z,98355.31
2022-08-11T21:45:01.254Z,98355.06
2022-08-11T21:48:24.674Z,98353.00
2022-08-11T21:51:45.242Z,98352.53
2022-08-11T21:55:05.677Z,98345.38
2022-08-11T21:58:27.530Z,98349.81
2022-08-11T22:01:49.126Z,98358.66
2022-08-11T22:05:12.094Z,98347.41
2022-08-11T22:08:32.946Z,98353.66
2022-08-11T22:12:01.219Z,98342.50
2022-08-11T22:15:33.938Z,98336.34
2022-08-11T22:18:55.062Z,98333.81
2022-08-11T22:22:18.319Z,98339.53
2022-08-11T22:25:53.642Z,98328.41
2022-08-11T22:29:15.870Z,98339.44
2022-08-11T22:32:38.437Z,98328.06
2022-08-11T22:36:00.263Z,98325.34
2022-08-11T22:39:22.222Z,98331.72
2022-08-11T22:42:42.870Z,98317.72
2022-08-11T22:46:03.249Z,98329.09
2022-08-11T22:49:24.353Z,98329.78
2022-08-11T22:52:46.682Z,98336.47
2022-08-11T22:56:08.911Z,98334.09
2022-08-11T22:59:29.938Z,98346.00
2022-08-11T23:02:51.014Z,98345.13
2022-08-11T23:06:12.135Z,98344.78
2022-08-11T23:09:32.400Z,98341.72
2022-08-11T23:12:54.872Z,98352.72
2022-08-11T23:16:16.272Z,98347.75
2022-08-11T23:20:01.568Z,98342.28
2022-08-11T23:23:18.237Z,98339.97
2022-08-11T23:26:39.326Z,98335.72
2022-08-11T23:30:01.856Z,98332.06
2022-08-11T23:33:24.337Z,98337.63
2022-08-11T23:36:47.223Z,98345.88
2022-08-11T23:40:08.053Z,98348.50
2022-08-11T23:43:38.209Z,98339.34
2022-08-11T23:47:00.758Z,98341.94
2022-08-11T23:50:21.254Z,98343.59
2022-08-11T23:53:41.922Z,98338.88
2022-08-11T23:57:02.658Z,98342.59
